Time;durP1;ratioP1;P1;durP2;ratioP2;P2;SDS_P1;SDS_P2;PMS_P1;PMS_P2;Temp;Humidity;BMP_temperature;BMP_pressure;BME280_temperature;BME280_humidity;BME280_pressure;Samples;Min_cycle;Max_cycle;Signal;HPM_P1;HPM_P2
2022/07/25 00:02:21;;;;;;;6.50;2.83;;;25.30;51.40;;;;;;5073007;28;20025;-79
2022/07/25 00:04:47;;;;;;;3.33;2.53;;;25.30;51.50;;;;;;5080358;28;20036;-79
2022/07/25 00:07:14;;;;;;;2.92;2.53;;;25.30;51.30;;;;;;5093960;28;20411;-78
2022/07/25 00:09:39;;;;;;;5.80;2.50;;;25.20;51.20;;;;;;5092434;28;20058;-78
2022/07/25 00:12:05;;;;;;;3.80;2.60;;;25.20;51.40;;;;;;5092668;28;20028;-78
2022/07/25 00:14:31;;;;;;;3.08;2.53;;;25.20;51.40;;;;;;5093256;28;20036;-79
2022/07/25 00:16:56;;;;;;;3.58;2.30;;;25.10;51.40;;;;;;5094279;28;20032;-78
2022/07/25 00:19:22;;;;;;;3.70;2.53;;;25.10;51.70;;;;;;5093333;28;20056;-78
2022/07/25 00:21:48;;;;;;;3.72;2.88;;;25.10;51.60;;;;;;5094081;28;20395;-78
2022/07/25 00:24:13;;;;;;;3.50;2.80;;;25.10;52.60;;;;;;5093996;28;20032;-78
2022/07/25 00:26:39;;;;;;;5.53;3.10;;;25.00;52.10;;;;;;5093601;28;20444;-78
2022/07/25 00:29:04;;;;;;;4.07;3.13;;;24.90;52.40;;;;;;5093442;28;20048;-79
2022/07/25 00:31:30;;;;;;;2.55;2.35;;;24.90;52.80;;;;;;5093000;28;20032;-79
2022/07/25 00:33:56;;;;;;;3.92;2.50;;;24.90;52.60;;;;;;5092736;28;20111;-79
2022/07/25 00:36:21;;;;;;;3.67;2.70;;;24.80;53.30;;;;;;5093866;28;20441;-78
2022/07/25 00:38:47;;;;;;;3.92;2.58;;;24.80;53.10;;;;;;5093281;28;20024;-78
2022/07/25 00:41:13;;;;;;;4.78;2.72;;;24.80;53.10;;;;;;5093450;28;20074;-78
2022/07/25 00:43:45;;;;;;;4.40;3.00;;;24.70;53.40;;;;;;5093074;28;20464;-77
2022/07/25 00:46:15;;;;;;;3.42;2.53;;;24.70;53.50;;;;;;5092248;28;20036;-78
2022/07/25 00:48:41;;;;;;;2.80;2.50;;;24.70;53.40;;;;;;5093312;28;20028;-78
2022/07/25 00:51:09;;;;;;;2.92;2.65;;;24.60;53.50;;;;;;5092639;28;20066;-78
2022/07/25 00:53:37;;;;;;;6.28;2.80;;;24.60;54.00;;;;;;5093134;28;20036;-78
2022/07/25 00:56:04;;;;;;;4.63;3.20;;;24.50;54.20;;;;;;5093253;28;20024;-78
2022/07/25 00:58:31;;;;;;;5.05;3.20;;;24.50;54.40;;;;;;5092809;28;20043;-78
2022/07/25 01:00:57;;;;;;;3.85;2.40;;;24.40;54.20;;;;;;5092146;28;20024;-78
2022/07/25 01:03:23;;;;;;;4.88;3.22;;;24.40;55.10;;;;;;5093076;28;20024;-78
2022/07/25 01:05:52;;;;;;;4.07;2.97;;;24.30;54.90;;;;;;5092854;28;20173;-77
2022/07/25 01:08:19;;;;;;;3.78;2.85;;;24.30;55.00;;;;;;5093342;28;20051;-79
2022/07/25 01:10:46;;;;;;;3.65;2.88;;;24.30;55.10;;;;;;5092814;28;20028;-78
2022/07/25 01:13:11;;;;;;;3.20;2.53;;;24.30;55.40;;;;;;5093163;28;20035;-79
2022/07/25 01:15:37;;;;;;;4.32;3.15;;;24.30;55.10;;;;;;5092702;28;20031;-78
2022/07/25 01:18:03;;;;;;;3.60;2.83;;;24.30;55.40;;;;;;5093293;28;20024;-79
2022/07/25 01:20:31;;;;;;;3.42;2.75;;;24.20;56.10;;;;;;5092762;28;20047;-78
2022/07/25 01:22:58;;;;;;;4.63;3.30;;;24.10;55.80;;;;;;5093191;28;20059;-78
2022/07/25 01:25:24;;;;;;;3.50;2.85;;;24.10;55.80;;;;;;5092961;28;20040;-79
2022/07/25 01:27:52;;;;;;;3.65;2.60;;;24.20;55.20;;;;;;5093026;28;20086;-78
2022/07/25 01:30:18;;;;;;;4.35;3.20;;;24.20;55.70;;;;;;5093126;28;20127;-79
2022/07/25 01:32:45;;;;;;;4.00;3.13;;;24.20;55.80;;;;;;5092921;28;20060;-79
2022/07/25 01:35:12;;;;;;;4.00;2.92;;;24.10;55.80;;;;;;5092730;28;20435;-78
2022/07/25 01:37:38;;;;;;;5.25;2.85;;;24.10;55.90;;;;;;5092511;28;20024;-78
2022/07/25 01:40:05;;;;;;;5.05;3.45;;;24.20;55.90;;;;;;5092952;28;20022;-78
2022/07/25 01:42:31;;;;;;;4.90;2.72;;;24.20;55.70;;;;;;5092268;28;20334;-79
2022/07/25 01:44:57;;;;;;;5.45;3.20;;;24.20;54.90;;;;;;5092783;28;20035;-78
2022/07/25 01:47:23;;;;;;;4.93;3.50;;;24.20;55.10;;;;;;5093096;28;20365;-78
2022/07/25 01:49:48;;;;;;;6.57;3.13;;;24.20;55.20;;;;;;5092569;28;20103;-78
2022/07/25 01:52:14;;;;;;;4.88;3.03;;;24.20;55.50;;;;;;5092814;28;20522;-78
2022/07/25 01:54:40;;;;;;;5.82;3.20;;;24.10;55.90;;;;;;5092474;28;20083;-78
2022/07/25 01:57:06;;;;;;;4.20;2.88;;;24.10;56.10;;;;;;5091695;28;20036;-78
2022/07/25 01:59:37;;;;;;;5.78;3.25;;;24.10;56.30;;;;;;5091999;28;20337;-78
2022/07/25 02:02:02;;;;;;;5.10;2.77;;;24.00;56.40;;;;;;5092457;28;20468;-77
2022/07/25 02:04:28;;;;;;;5.03;3.33;;;23.90;56.40;;;;;;5092389;28;20036;-78
2022/07/25 02:06:54;;;;;;;8.05;3.35;;;24.00;56.70;;;;;;5092260;28;20024;-78
2022/07/25 02:09:19;;;;;;;3.83;3.28;;;23.90;56.50;;;;;;5092590;28;20026;-78
2022/07/25 02:11:45;;;;;;;7.15;3.30;;;23.90;56.40;;;;;;5092175;28;20058;-78
2022/07/25 02:14:11;;;;;;;4.40;3.10;;;23.90;56.60;;;;;;5092262;28;20033;-78
2022/07/25 02:16:36;;;;;;;3.83;2.85;;;23.90;56.70;;;;;;5092232;28;20028;-78
2022/07/25 02:19:02;;;;;;;6.50;3.88;;;23.90;57.00;;;;;;5092527;28;20028;-78
2022/07/25 02:21:28;;;;;;;5.70;3.60;;;23.80;57.30;;;;;;5092483;28;20024;-78
2022/07/25 02:23:54;;;;;;;5.38;3.63;;;23.70;57.50;;;;;;5091946;28;20030;-79
2022/07/25 02:26:19;;;;;;;6.78;3.25;;;23.60;57.90;;;;;;5094019;28;20114;-79
2022/07/25 02:28:45;;;;;;;4.40;3.15;;;23.60;57.90;;;;;;5095450;28;20048;-78
2022/07/25 02:31:10;;;;;;;4.88;3.33;;;23.60;58.10;;;;;;5095060;28;20036;-79
2022/07/25 02:33:36;;;;;;;6.25;3.78;;;23.60;58.60;;;;;;5095388;28;20062;-79
2022/07/25 02:36:02;;;;;;;4.78;3.38;;;23.60;58.10;;;;;;5095845;28;20112;-79
2022/07/25 02:38:27;;;;;;;6.43;3.88;;;23.60;58.00;;;;;;5096177;28;20106;-79
2022/07/25 02:40:53;;;;;;;3.58;3.08;;;23.60;58.50;;;;;;5096017;28;20238;-79
2022/07/25 02:43:19;;;;;;;4.90;3.35;;;23.60;58.20;;;;;;5095787;28;20035;-78
2022/07/25 02:45:45;;;;;;;5.53;3.42;;;23.50;58.00;;;;;;5095547;28;20085;-78
2022/07/25 02:48:12;;;;;;;5.80;3.45;;;23.60;58.10;;;;;;5095942;28;20414;-79
2022/07/25 02:50:38;;;;;;;6.93;3.63;;;23.60;58.80;;;;;;5095643;28;20057;-78
2022/07/25 02:53:03;;;;;;;5.35;3.40;;;23.60;59.00;;;;;;5095681;28;20107;-79
2022/07/25 02:55:30;;;;;;;5.93;3.50;;;23.50;59.20;;;;;;5095538;28;20036;-79
2022/07/25 02:57:55;;;;;;;5.57;3.10;;;23.50;59.90;;;;;;5095370;28;20039;-79
2022/07/25 03:00:21;;;;;;;4.50;3.30;;;23.50;60.70;;;;;;5095639;28;20475;-77
2022/07/25 03:02:47;;;;;;;4.63;3.67;;;23.40;60.80;;;;;;5095271;28;20025;-78
2022/07/25 03:05:14;;;;;;;4.38;3.17;;;23.40;60.60;;;;;;5095279;28;20450;-79
2022/07/25 03:07:41;;;;;;;6.25;3.60;;;23.40;60.40;;;;;;5095120;28;20040;-79
2022/07/25 03:10:10;;;;;;;7.90;3.47;;;23.40;60.00;;;;;;5095219;28;20024;-79
2022/07/25 03:12:36;;;;;;;5.30;3.50;;;23.40;60.20;;;;;;5095451;28;20364;-78
2022/07/25 03:15:03;;;;;;;4.80;3.38;;;23.40;60.50;;;;;;5095494;28;20048;-79
2022/07/25 03:17:29;;;;;;;5.60;3.55;;;23.40;60.20;;;;;;5095364;28;20032;-79
2022/07/25 03:19:55;;;;;;;6.43;3.50;;;23.30;60.70;;;;;;5094906;28;20021;-79
2022/07/25 03:22:22;;;;;;;4.03;3.05;;;23.20;61.20;;;;;;5094041;28;20081;-79
2022/07/25 03:24:48;;;;;;;4.30;3.40;;;23.20;61.80;;;;;;5094552;28;20430;-79
2022/07/25 03:27:13;;;;;;;4.25;3.38;;;23.20;62.10;;;;;;5095461;28;20036;-78
2022/07/25 03:29:39;;;;;;;6.05;4.10;;;23.20;62.60;;;;;;5094376;28;20052;-79
2022/07/25 03:32:06;;;;;;;10.15;4.05;;;23.10;63.20;;;;;;5094835;28;20065;-79
2022/07/25 03:34:31;;;;;;;5.13;3.38;;;23.10;63.60;;;;;;5094825;28;20441;-78
2022/07/25 03:36:59;;;;;;;7.00;3.72;;;23.10;63.80;;;;;;5094250;28;20099;-79
2022/07/25 03:39:25;;;;;;;7.07;3.95;;;23.10;63.60;;;;;;5094996;28;20028;-78
2022/07/25 03:41:51;;;;;;;6.38;3.75;;;23.10;64.10;;;;;;5094509;28;20081;-79
2022/07/25 03:44:18;;;;;;;5.85;3.50;;;23.00;64.00;;;;;;5094741;28;20064;-79
2022/07/25 03:46:43;;;;;;;5.22;3.42;;;22.90;64.00;;;;;;5094449;28;20085;-78
2022/07/25 03:49:09;;;;;;;6.80;3.88;;;22.90;64.00;;;;;;5094478;28;20441;-78
2022/07/25 03:51:35;;;;;;;7.05;3.97;;;22.90;64.20;;;;;;5094907;28;20024;-78
2022/07/25 03:54:00;;;;;;;4.82;3.75;;;22.80;64.30;;;;;;5093961;28;20038;-78
2022/07/25 03:56:30;;;;;;;6.63;4.22;;;22.90;64.10;;;;;;5094316;28;20028;-79
2022/07/25 03:58:55;;;;;;;6.75;4.78;;;22.90;64.20;;;;;;5094063;28;20036;-78
2022/07/25 04:01:21;;;;;;;6.55;3.42;;;22.90;64.60;;;;;;5094547;28;20034;-79
2022/07/25 04:03:47;;;;;;;6.30;4.05;;;22.90;64.10;;;;;;5094097;28;20077;-79
2022/07/25 04:06:12;;;;;;;6.38;4.10;;;22.90;64.10;;;;;;5094051;28;20051;-79
2022/07/25 04:08:38;;;;;;;6.00;4.10;;;22.90;64.10;;;;;;5094506;28;20024;-79
2022/07/25 04:11:04;;;;;;;6.15;3.60;;;22.90;64.40;;;;;;5093945;28;20031;-78
2022/07/25 04:13:29;;;;;;;5.55;3.88;;;22.90;64.70;;;;;;5094333;28;20035;-79
2022/07/25 04:15:55;;;;;;;7.20;4.25;;;22.90;64.60;;;;;;5093642;28;20050;-78
2022/07/25 04:18:21;;;;;;;5.50;4.22;;;22.90;64.80;;;;;;5094110;28;20463;-79
2022/07/25 04:20:46;;;;;;;5.15;3.75;;;22.90;64.70;;;;;;5093997;28;20024;-79
2022/07/25 04:23:12;;;;;;;5.45;4.57;;;23.00;64.80;;;;;;5093802;28;20375;-79
2022/07/25 04:25:38;;;;;;;7.60;4.30;;;23.00;64.80;;;;;;5092559;28;20063;-78
2022/07/25 04:28:03;;;;;;;7.00;4.18;;;23.10;64.70;;;;;;5093601;28;20028;-79
2022/07/25 04:30:29;;;;;;;4.75;3.55;;;23.10;64.30;;;;;;5092912;28;20041;-79
2022/07/25 04:32:55;;;;;;;6.82;4.03;;;23.20;64.10;;;;;;5091866;28;20054;-79
2022/07/25 04:35:21;;;;;;;7.40;4.07;;;23.40;63.70;;;;;;5093758;28;20055;-79
2022/07/25 04:37:46;;;;;;;5.22;3.65;;;23.50;63.00;;;;;;5093222;28;20031;-79
2022/07/25 04:40:12;;;;;;;8.00;4.45;;;23.60;62.60;;;;;;5092845;28;20099;-79
2022/07/25 04:42:38;;;;;;;10.43;4.65;;;23.70;62.30;;;;;;5093331;28;20077;-78
2022/07/25 04:45:04;;;;;;;5.90;4.47;;;23.80;61.60;;;;;;5093098;28;20050;-79
2022/07/25 04:47:29;;;;;;;6.03;4.43;;;23.80;61.70;;;;;;5093543;28;20365;-79
2022/07/25 04:49:55;;;;;;;6.20;4.13;;;23.90;61.70;;;;;;5092354;28;20101;-79
2022/07/25 04:52:21;;;;;;;6.53;4.50;;;23.80;61.50;;;;;;5092191;28;20028;-79
2022/07/25 04:54:47;;;;;;;7.18;4.18;;;23.90;61.00;;;;;;5092781;28;20031;-79
2022/07/25 04:57:12;;;;;;;5.60;4.35;;;23.90;61.20;;;;;;5093139;28;20050;-79
2022/07/25 04:59:38;;;;;;;9.50;4.78;;;24.10;61.10;;;;;;5091998;28;20456;-78
2022/07/25 05:02:04;;;;;;;7.88;4.25;;;24.10;60.00;;;;;;5092866;28;20031;-79
2022/07/25 05:04:29;;;;;;;5.50;3.70;;;24.30;59.50;;;;;;5093306;28;20111;-80
2022/07/25 05:06:55;;;;;;;4.78;3.80;;;24.50;58.20;;;;;;5092578;28;20024;-79
2022/07/25 05:09:21;;;;;;;5.75;3.50;;;24.70;58.10;;;;;;5092955;28;20115;-79
2022/07/25 05:11:47;;;;;;;5.03;4.07;;;25.00;56.70;;;;;;5092693;28;20020;-79
2022/07/25 05:14:12;;;;;;;4.15;3.58;;;25.10;55.80;;;;;;5091824;28;20025;-79
2022/07/25 05:16:38;;;;;;;6.15;4.07;;;25.30;55.20;;;;;;5093274;28;20409;-80
2022/07/25 05:19:04;;;;;;;5.70;3.30;;;25.50;54.40;;;;;;5092298;28;20028;-80
2022/07/25 05:21:29;;;;;;;4.50;3.55;;;25.70;53.70;;;;;;5092841;28;20055;-80
2022/07/25 05:23:55;;;;;;;6.22;3.75;;;25.90;53.80;;;;;;5091194;28;20079;-79
2022/07/25 05:26:21;;;;;;;5.38;3.92;;;26.20;52.70;;;;;;5092711;28;20046;-80
2022/07/25 05:28:46;;;;;;;6.60;4.03;;;26.50;51.30;;;;;;5092788;28;20047;-79
2022/07/25 05:31:12;;;;;;;3.85;2.88;;;26.70;51.10;;;;;;5092575;28;20028;-80
2022/07/25 05:33:38;;;;;;;5.63;3.63;;;27.00;48.80;;;;;;5091865;28;20032;-82
2022/07/25 05:36:04;;;;;;;5.00;3.53;;;27.20;47.70;;;;;;5092457;28;20024;-80
2022/07/25 05:38:30;;;;;;;3.38;2.92;;;27.30;48.40;;;;;;5092821;28;20519;-79
2022/07/25 05:40:55;;;;;;;4.72;3.45;;;27.60;47.00;;;;;;5092232;28;20021;-80
2022/07/25 05:43:21;;;;;;;4.25;3.20;;;27.80;47.30;;;;;;5093159;28;20059;-80
2022/07/25 05:45:47;;;;;;;5.10;3.30;;;28.00;47.30;;;;;;5092816;28;20483;-80
2022/07/25 05:48:13;;;;;;;7.72;3.25;;;28.30;46.90;;;;;;5092402;28;20102;-80
2022/07/25 05:50:40;;;;;;;3.78;3.20;;;28.50;46.50;;;;;;5091162;28;20028;-77
2022/07/25 05:53:06;;;;;;;3.72;3.33;;;28.70;44.90;;;;;;5090902;28;20028;-80
2022/07/25 05:55:32;;;;;;;4.72;3.60;;;28.80;44.30;;;;;;5092658;28;20448;-79
2022/07/25 05:57:57;;;;;;;5.88;4.25;;;29.00;44.50;;;;;;5092424;28;20037;-79
2022/07/25 06:00:23;;;;;;;5.00;4.00;;;29.20;44.70;;;;;;5094389;28;20028;-80
2022/07/25 06:02:49;;;;;;;4.50;3.92;;;29.20;44.30;;;;;;5096788;28;20111;-78
2022/07/25 06:05:15;;;;;;;5.53;4.45;;;29.50;45.10;;;;;;5096189;28;20128;-79
2022/07/25 06:07:40;;;;;;;7.00;4.53;;;29.40;44.60;;;;;;5096784;28;20151;-79
2022/07/25 06:10:06;;;;;;;5.97;4.43;;;29.60;44.20;;;;;;5094628;28;20068;-79
2022/07/25 06:12:32;;;;;;;5.53;4.25;;;29.90;44.90;;;;;;5095204;28;20027;-81
2022/07/25 06:14:59;;;;;;;5.32;4.25;;;30.00;43.00;;;;;;5096106;28;20036;-79
2022/07/25 06:17:25;;;;;;;5.18;4.25;;;30.10;43.30;;;;;;5096026;28;20484;-80
2022/07/25 06:19:50;;;;;;;5.53;4.57;;;30.20;42.80;;;;;;5096418;28;20066;-79
2022/07/25 06:22:18;;;;;;;4.82;3.88;;;30.30;43.60;;;;;;5095874;28;20440;-80
2022/07/25 06:24:44;;;;;;;5.38;3.78;;;30.50;43.60;;;;;;5096405;28;20476;-80
2022/07/25 06:27:10;;;;;;;8.63;4.55;;;30.60;42.50;;;;;;5096112;28;20056;-81
2022/07/25 06:29:37;;;;;;;7.07;4.13;;;30.60;41.90;;;;;;5094381;28;20377;-81
2022/07/25 06:32:03;;;;;;;5.65;4.32;;;30.80;42.10;;;;;;5095902;28;20024;-79
2022/07/25 06:34:29;;;;;;;4.93;4.20;;;30.80;43.10;;;;;;5096153;28;20104;-80
2022/07/25 06:36:56;;;;;;;4.68;4.10;;;30.90;43.10;;;;;;5095739;28;20044;-81
2022/07/25 06:39:22;;;;;;;5.30;3.40;;;30.90;42.70;;;;;;5096315;28;20488;-81
2022/07/25 06:41:48;;;;;;;4.95;3.40;;;30.80;42.40;;;;;;5096160;28;20032;-80
2022/07/25 06:44:14;;;;;;;4.47;3.08;;;31.00;42.00;;;;;;5095368;28;20031;-80
2022/07/25 06:46:40;;;;;;;3.97;2.75;;;31.20;40.40;;;;;;5095951;28;20388;-80
2022/07/25 06:49:05;;;;;;;4.65;3.45;;;31.40;40.10;;;;;;5094313;28;20123;-81
2022/07/25 06:51:31;;;;;;;6.38;3.72;;;31.50;40.00;;;;;;5095856;28;20027;-81
2022/07/25 06:53:57;;;;;;;4.90;3.40;;;31.70;40.70;;;;;;5095533;28;20069;-80
2022/07/25 06:56:22;;;;;;;3.15;2.70;;;31.90;39.90;;;;;;5095847;28;20449;-80
2022/07/25 06:58:48;;;;;;;7.10;3.20;;;31.80;38.90;;;;;;5095497;28;20104;-81
2022/07/25 07:01:14;;;;;;;5.13;2.50;;;32.10;38.20;;;;;;5095338;28;20028;-81
2022/07/25 07:03:40;;;;;;;2.78;2.22;;;32.50;38.30;;;;;;5095663;28;20020;-81
2022/07/25 07:06:08;;;;;;;4.97;1.90;;;33.00;37.50;;;;;;5095086;28;20039;-80
2022/07/25 07:08:34;;;;;;;4.72;2.08;;;33.50;36.60;;;;;;5095462;28;20031;-81
2022/07/25 07:11:00;;;;;;;2.10;1.90;;;34.00;36.50;;;;;;5094579;28;20373;-80
2022/07/25 07:13:26;;;;;;;2.00;1.80;;;34.30;35.20;;;;;;5095127;28;20024;-81
2022/07/25 07:15:52;;;;;;;1.67;1.58;;;34.70;34.90;;;;;;5095208;28;20036;-82
2022/07/25 07:18:19;;;;;;;4.18;2.08;;;35.10;33.00;;;;;;5094542;28;20383;-81
2022/07/25 07:20:45;;;;;;;2.38;1.80;;;35.20;33.10;;;;;;5094915;28;20456;-80
2022/07/25 07:23:10;;;;;;;2.53;1.77;;;35.70;33.00;;;;;;5094416;28;20032;-81
2022/07/25 07:25:36;;;;;;;3.10;2.10;;;36.20;32.40;;;;;;5094724;28;20111;-81
2022/07/25 07:28:03;;;;;;;3.17;2.10;;;36.30;31.20;;;;;;5094626;28;20468;-80
2022/07/25 07:30:29;;;;;;;2.72;1.60;;;36.30;30.90;;;;;;5095190;28;20048;-80
2022/07/25 07:32:55;;;;;;;3.05;1.60;;;36.20;30.00;;;;;;5094696;28;20119;-80
2022/07/25 07:35:20;;;;;;;2.30;1.42;;;36.20;30.50;;;;;;5094733;28;20098;-80
2022/07/25 07:37:46;;;;;;;1.90;1.58;;;36.10;29.70;;;;;;5094927;28;20025;-82
2022/07/25 07:40:13;;;;;;;2.95;1.52;;;36.00;30.10;;;;;;5094533;28;20437;-82
2022/07/25 07:42:44;;;;;;;2.85;1.30;;;35.50;30.40;;;;;;5094733;28;20432;-81
2022/07/25 07:45:15;;;;;;;1.52;1.35;;;35.80;31.30;;;;;;5094354;28;20078;-81
2022/07/25 07:47:41;;;;;;;1.90;1.33;;;35.80;30.00;;;;;;5094862;28;20384;-81
2022/07/25 07:50:08;;;;;;;1.85;1.50;;;35.30;29.80;;;;;;5094525;28;20035;-81
2022/07/25 07:52:34;;;;;;;2.53;1.25;;;35.50;30.30;;;;;;5094787;28;20035;-81
2022/07/25 07:57:43;;;;;;;1.58;1.38;;;35.60;31.20;;;;;;5094336;28;20487;-81
2022/07/25 08:00:10;;;;;;;1.80;1.50;;;35.40;29.70;;;;;;5094221;28;20024;-81
2022/07/25 08:03:07;;;;;;;1.80;1.33;;;35.40;29.90;;;;;;5094334;28;20036;-80
2022/07/25 08:05:36;;;;;;;1.45;1.33;;;35.50;30.40;;;;;;5085765;28;20063;-81
2022/07/25 08:08:01;;;;;;;1.40;1.05;;;35.90;30.60;;;;;;5093793;28;20024;-80
2022/07/25 08:10:30;;;;;;;2.05;1.55;;;35.90;29.60;;;;;;5094376;28;20039;-80
2022/07/25 08:12:56;;;;;;;2.33;1.42;;;35.90;29.50;;;;;;5093986;28;20047;-81
2022/07/25 08:15:22;;;;;;;1.60;1.50;;;35.90;30.00;;;;;;5093744;28;20124;-81
2022/07/25 08:17:49;;;;;;;2.10;1.50;;;36.40;29.50;;;;;;5094403;28;20107;-81
2022/07/25 08:20:16;;;;;;;1.25;1.15;;;36.80;29.70;;;;;;5093598;28;20111;-81
2022/07/25 08:22:44;;;;;;;2.63;1.60;;;37.40;29.40;;;;;;5094202;28;20365;-80
2022/07/25 08:25:14;;;;;;;4.60;1.80;;;37.90;29.00;;;;;;5093093;28;20028;-79
2022/07/25 08:27:39;;;;;;;1.97;1.40;;;38.30;28.40;;;;;;5094008;28;20032;-80
2022/07/25 08:30:07;;;;;;;1.50;1.40;;;38.30;28.40;;;;;;5093452;28;20439;-80
2022/07/25 08:32:33;;;;;;;2.25;1.67;;;38.50;28.90;;;;;;5093926;28;20028;-80
2022/07/25 08:35:01;;;;;;;1.83;1.55;;;38.90;28.10;;;;;;5092657;28;20091;-80
2022/07/25 08:37:27;;;;;;;1.70;1.25;;;39.10;27.90;;;;;;5093461;28;20447;-81
2022/07/25 08:39:52;;;;;;;1.55;1.15;;;39.50;28.60;;;;;;5093750;28;20063;-80
2022/07/25 08:42:19;;;;;;;1.80;1.70;;;39.90;28.00;;;;;;5093234;28;20027;-80
2022/07/25 08:44:54;;;;;;;1.92;1.50;;;39.80;27.70;;;;;;5093257;28;20044;-80
2022/07/25 08:47:21;;;;;;;1.98;1.27;;;39.40;27.60;;;;;;5092135;28;20027;-80
2022/07/25 08:49:47;;;;;;;1.60;1.30;;;39.80;27.60;;;;;;5093612;28;20031;-79
2022/07/25 08:52:13;;;;;;;1.48;1.38;;;39.30;27.70;;;;;;5092749;28;20024;-79
2022/07/25 08:54:40;;;;;;;2.60;1.55;;;39.00;27.90;;;;;;5093511;28;20028;-79
2022/07/25 08:57:05;;;;;;;1.70;1.50;;;38.90;28.00;;;;;;5093308;28;20024;-80
2022/07/25 08:59:31;;;;;;;1.52;1.40;;;38.90;28.00;;;;;;5093831;28;20035;-80
2022/07/25 09:02:01;;;;;;;2.10;1.77;;;38.30;28.00;;;;;;5092289;28;20034;-80
2022/07/25 09:04:28;;;;;;;1.70;1.38;;;37.60;28.60;;;;;;5092924;28;20032;-81
2022/07/25 09:06:53;;;;;;;2.13;1.65;;;36.70;28.80;;;;;;5093368;28;20038;-80
2022/07/25 09:09:29;;;;;;;4.68;1.60;;;36.30;29.50;;;;;;5092854;28;20020;-79
2022/07/25 09:11:54;;;;;;;1.58;1.48;;;35.60;29.60;;;;;;5093029;28;20055;-79
2022/07/25 09:14:20;;;;;;;1.83;1.65;;;35.10;30.00;;;;;;5091621;28;20028;-79
2022/07/25 09:16:45;;;;;;;2.05;1.85;;;34.70;30.30;;;;;;5093208;28;20111;-79
2022/07/25 09:19:16;;;;;;;3.20;1.85;;;34.40;31.10;;;;;;5092802;28;20441;-79
2022/07/25 09:21:44;;;;;;;1.90;1.70;;;34.20;31.60;;;;;;5093115;28;20032;-78
2022/07/25 09:24:18;;;;;;;2.00;1.80;;;33.80;31.70;;;;;;5092509;28;20077;-80
2022/07/25 09:26:44;;;;;;;1.90;1.70;;;33.70;32.00;;;;;;5093030;28;20106;-78
2022/07/25 09:29:21;;;;;;;2.10;1.65;;;33.50;32.60;;;;;;5092455;28;20040;-79
2022/07/25 09:31:47;;;;;;;2.67;1.98;;;33.40;32.90;;;;;;5093169;28;20085;-79
2022/07/25 09:34:36;;;;;;;2.15;1.67;;;33.30;33.30;;;;;;5092311;28;20480;-79
2022/07/25 09:37:05;;;;;;;3.38;2.30;;;33.20;33.40;;;;;;5092791;28;20032;-79
2022/07/25 09:39:40;;;;;;;4.07;2.78;;;33.00;33.70;;;;;;5092809;28;20165;-79
2022/07/25 09:42:22;;;;;;;2.33;2.13;;;32.80;34.20;;;;;;5092968;28;20024;-79
2022/07/25 09:45:20;;;;;;;2.53;2.10;;;32.60;34.50;;;;;;5092838;28;20039;-78
2022/07/25 09:47:50;;;;;;;2.30;2.10;;;32.60;35.00;;;;;;5069640;28;20032;-80
2022/07/25 09:50:16;;;;;;;2.38;2.00;;;32.60;34.90;;;;;;5092499;28;20028;-78
2022/07/25 09:52:44;;;;;;;2.20;1.88;;;32.70;34.90;;;;;;5092724;28;20043;-78
2022/07/25 09:55:12;;;;;;;3.05;2.25;;;32.60;35.40;;;;;;5092405;28;20024;-78
2022/07/25 09:57:39;;;;;;;2.40;2.20;;;32.70;36.10;;;;;;5092612;28;20177;-78
2022/07/25 10:00:06;;;;;;;2.65;1.98;;;32.70;36.20;;;;;;5092408;28;20035;-78
2022/07/25 10:02:40;;;;;;;3.40;2.30;;;32.70;36.40;;;;;;5091806;28;20028;-78
2022/07/25 10:05:15;;;;;;;2.28;2.08;;;32.70;36.50;;;;;;5092603;28;20381;-79
2022/07/25 10:07:53;;;;;;;3.03;2.25;;;32.70;36.60;;;;;;5092533;28;20043;-78
2022/07/25 10:10:36;;;;;;;2.60;2.30;;;32.70;37.00;;;;;;5092172;28;20024;-78
2022/07/25 10:13:05;;;;;;;12.10;2.90;;;32.60;37.20;;;;;;5092490;28;20028;-79
2022/07/25 10:15:42;;;;;;;2.78;2.38;;;32.60;37.20;;;;;;5091972;28;20032;-79
2022/07/25 10:18:08;;;;;;;2.28;2.10;;;32.60;37.10;;;;;;5092413;28;20173;-79
2022/07/25 10:20:35;;;;;;;2.70;2.50;;;32.70;37.40;;;;;;5091996;28;20081;-79
2022/07/25 10:23:00;;;;;;;4.70;2.72;;;32.60;37.80;;;;;;5092454;28;20028;-79
2022/07/25 10:25:26;;;;;;;2.63;2.42;;;32.60;37.90;;;;;;5091613;28;20031;-80
2022/07/25 10:28:01;;;;;;;3.38;2.42;;;32.60;38.00;;;;;;5092609;28;20032;-79
2022/07/25 10:30:35;;;;;;;4.13;2.60;;;32.50;38.30;;;;;;5092371;28;20483;-79
2022/07/25 10:33:09;;;;;;;3.92;2.22;;;32.50;38.50;;;;;;5092324;28;20130;-79
2022/07/25 10:35:36;;;;;;;3.58;2.55;;;32.50;38.40;;;;;;5092817;28;20111;-79
2022/07/25 10:38:03;;;;;;;3.20;2.70;;;32.50;38.70;;;;;;5092383;28;20024;-79
2022/07/25 10:40:42;;;;;;;3.00;2.53;;;32.50;38.60;;;;;;5091638;28;20028;-78
2022/07/25 10:43:10;;;;;;;2.78;2.45;;;32.50;38.50;;;;;;5092218;28;20025;-78
2022/07/25 10:45:41;;;;;;;2.75;2.22;;;32.50;38.40;;;;;;5091894;28;20377;-78
2022/07/25 10:48:21;;;;;;;3.30;2.50;;;32.50;38.50;;;;;;5094908;28;20039;-79
2022/07/25 10:51:11;;;;;;;2.85;2.28;;;32.50;38.60;;;;;;5095232;28;20024;-79
2022/07/25 10:53:45;;;;;;;4.05;2.47;;;32.60;38.30;;;;;;5095736;28;20040;-79
2022/07/25 10:56:23;;;;;;;4.20;2.40;;;32.50;38.20;;;;;;5095719;28;20036;-78
2022/07/25 10:58:52;;;;;;;2.65;2.42;;;32.50;38.30;;;;;;5095141;28;20056;-78
2022/07/25 11:01:21;;;;;;;2.25;2.05;;;32.60;38.60;;;;;;5095221;28;20020;-78
2022/07/25 11:03:47;;;;;;;2.65;2.00;;;32.70;38.60;;;;;;5095389;28;20107;-78
2022/07/25 11:06:15;;;;;;;2.72;2.38;;;32.70;38.30;;;;;;5095106;28;20123;-77
2022/07/25 11:08:42;;;;;;;3.15;2.45;;;32.70;37.80;;;;;;5093871;28;20028;-79
2022/07/25 11:11:08;;;;;;;2.38;2.17;;;32.90;38.10;;;;;;5095444;28;20024;-79
2022/07/25 11:13:41;;;;;;;3.13;2.50;;;32.90;37.60;;;;;;5094851;28;20122;-79
2022/07/25 11:16:08;;;;;;;2.95;2.35;;;32.90;37.50;;;;;;5094166;28;20077;-79
2022/07/25 11:18:38;;;;;;;3.45;2.22;;;32.90;37.70;;;;;;5094511;28;20348;-79
2022/07/25 11:21:06;;;;;;;3.97;2.33;;;33.00;37.40;;;;;;5095457;28;20062;-80
2022/07/25 11:23:32;;;;;;;2.92;2.33;;;33.10;37.40;;;;;;5094842;28;20111;-79
2022/07/25 11:26:06;;;;;;;3.28;2.33;;;33.10;37.30;;;;;;5095277;28;20066;-79
2022/07/25 11:28:44;;;;;;;2.00;1.60;;;33.00;37.10;;;;;;5094385;28;20077;-79
2022/07/25 11:31:12;;;;;;;2.78;2.15;;;33.10;37.40;;;;;;5095112;28;20028;-78
2022/07/25 11:33:38;;;;;;;6.18;1.90;;;33.20;37.40;;;;;;5094727;28;20077;-78
2022/07/25 11:36:04;;;;;;;2.85;2.33;;;33.20;37.20;;;;;;5095228;28;20468;-78
2022/07/25 11:38:30;;;;;;;3.45;2.38;;;33.20;37.20;;;;;;5093145;28;20104;-79
2022/07/25 11:40:56;;;;;;;2.85;2.30;;;33.20;37.00;;;;;;5094966;28;20063;-79
2022/07/25 11:43:24;;;;;;;2.40;2.20;;;33.20;37.20;;;;;;5094497;28;20063;-78
2022/07/25 11:45:59;;;;;;;4.13;2.45;;;33.20;37.70;;;;;;5094768;28;20378;-79
2022/07/25 11:48:36;;;;;;;2.35;2.15;;;33.40;37.30;;;;;;5094481;28;20031;-78
2022/07/25 11:51:10;;;;;;;2.47;2.13;;;33.40;37.00;;;;;;5094935;28;20103;-78
2022/07/25 11:53:49;;;;;;;2.67;2.05;;;33.50;36.90;;;;;;5094376;28;20074;-79
2022/07/25 11:56:18;;;;;;;2.22;1.98;;;33.40;36.70;;;;;;5094639;28;20036;-79
2022/07/25 11:58:56;;;;;;;2.95;2.10;;;33.50;36.90;;;;;;5094220;28;20024;-79
2022/07/25 12:01:23;;;;;;;3.50;2.83;;;33.40;36.80;;;;;;5094061;28;20460;-78
2022/07/25 12:03:49;;;;;;;3.90;2.50;;;33.40;37.20;;;;;;5094273;28;20039;-78
2022/07/25 12:06:15;;;;;;;4.97;2.30;;;33.30;37.10;;;;;;5094216;28;20027;-78
2022/07/25 12:08:41;;;;;;;2.97;2.35;;;33.20;37.10;;;;;;5093988;28;20053;-80
2022/07/25 12:11:21;;;;;;;2.97;2.30;;;33.10;37.40;;;;;;5094269;28;20056;-79
2022/07/25 12:13:48;;;;;;;2.63;2.35;;;33.00;37.80;;;;;;5094340;28;20024;-78
2022/07/25 12:16:15;;;;;;;2.70;2.28;;;32.90;38.00;;;;;;5094248;28;20032;-78
2022/07/25 12:18:41;;;;;;;4.15;2.25;;;32.90;38.20;;;;;;5093559;28;20512;-78
2022/07/25 12:21:07;;;;;;;3.78;2.88;;;32.90;38.50;;;;;;5094239;28;20103;-78
2022/07/25 12:23:33;;;;;;;3.70;2.80;;;32.80;38.20;;;;;;5093519;28;20028;-78
2022/07/25 12:25:59;;;;;;;3.35;2.35;;;32.70;38.40;;;;;;5094028;28;20024;-79
2022/07/25 12:28:25;;;;;;;4.20;2.70;;;32.80;38.60;;;;;;5093377;28;20030;-79
2022/07/25 12:30:51;;;;;;;4.03;3.00;;;32.70;38.60;;;;;;5094242;28;20032;-79
2022/07/25 12:33:16;;;;;;;2.95;2.55;;;32.70;39.20;;;;;;5094001;28;20067;-79
2022/07/25 12:35:43;;;;;;;2.65;2.35;;;32.70;38.70;;;;;;5093486;28;20051;-78
2022/07/25 12:38:10;;;;;;;3.00;2.20;;;32.70;38.80;;;;;;5093604;28;20028;-78
2022/07/25 12:40:35;;;;;;;4.55;2.53;;;32.70;38.70;;;;;;5093373;28;20027;-78
2022/07/25 12:43:02;;;;;;;2.63;2.33;;;32.70;39.00;;;;;;5093705;28;20028;-79
2022/07/25 12:45:28;;;;;;;3.78;2.80;;;32.60;38.70;;;;;;5093194;28;20061;-78
2022/07/25 12:47:53;;;;;;;4.38;2.58;;;32.60;38.80;;;;;;5093348;28;20071;-79
2022/07/25 12:50:19;;;;;;;3.05;2.28;;;32.60;38.90;;;;;;5093298;28;20055;-78